Airport View

Enter AWOS ICAO identifier for current METAR.

ex. KFNL

KDCA 261052Z 33006KT 10SM FEW250 24/16 A3008 RMK AO2 SLP187 T02390161

26 Jun 2019 11:51

Frequency: 132.65

Phone: 703-412-8140

Other Area AWOS: KADW - KCGS - KDAA - KFME

TAF AMD KDCA 260857Z 2609/2712 32007KT P6SM FEW250 FM261900 25008KT P6SM FEW060 SCT250 FM270500 30004KT P6SM FEW250